Time;durP1;ratioP1;P1;durP2;ratioP2;P2;SDS_P1;SDS_P2;PMS_P1;PMS_P2;Temp;Humidity;BMP_temperature;BMP_pressure;BME280_temperature;BME280_humidity;BME280_pressure;Samples;Min_cycle;Max_cycle;Signal;HPM_P1;HPM_P2
2021/12/19 00:00:40;;;;;;;1.22;1.12;;;;;;;0.36;84.76;100107.69;1809377;79;21251;-82
2021/12/19 00:10:20;;;;;;;1.57;1.20;;;;;;;0.56;84.21;100087.33;1784003;79;21260;-82
2021/12/19 00:13:27;;;;;;;1.37;1.27;;;;;;;0.56;83.76;100086.83;1809264;79;21152;-81
2021/12/19 00:16:34;;;;;;;1.67;1.42;;;;;;;0.52;83.43;100085.38;1809238;79;21243;-83
2021/12/19 00:19:40;;;;;;;3.08;1.40;;;;;;;0.48;83.36;100077.17;1809259;79;21251;-81
2021/12/19 00:22:44;;;;;;;2.75;1.60;;;;;;;0.41;83.60;100074.56;1809233;79;21168;-83
2021/12/19 00:25:49;;;;;;;2.42;1.70;;;;;;;0.38;84.07;100074.81;1809265;79;21279;-81
2021/12/19 00:28:56;;;;;;;2.30;1.67;;;;;;;0.34;84.54;100054.49;1809244;79;21259;-81
2021/12/19 00:32:02;;;;;;;3.62;2.20;;;;;;;0.29;85.12;100049.95;1809356;79;21493;-82
2021/12/19 00:35:07;;;;;;;2.45;1.95;;;;;;;0.26;85.53;100053.72;1809201;79;21256;-82
2021/12/19 00:38:14;;;;;;;2.42;1.77;;;;;;;0.24;85.98;100047.62;1809185;79;21327;-82
2021/12/19 00:41:19;;;;;;;3.62;2.10;;;;;;;0.24;86.42;100040.40;1809266;79;21793;-82
2021/12/19 00:44:25;;;;;;;2.52;2.17;;;;;;;0.28;86.82;100047.72;1809272;79;21287;-83
2021/12/19 00:47:31;;;;;;;3.87;2.50;;;;;;;0.30;87.32;100040.91;1808492;79;21286;-82
2021/12/19 00:50:35;;;;;;;3.12;2.55;;;;;;;0.30;87.79;100032.83;1809098;79;21785;-82
2021/12/19 00:53:40;;;;;;;3.85;2.60;;;;;;;0.33;88.09;100023.16;1809131;79;21200;-81
2021/12/19 00:56:48;;;;;;;4.58;2.67;;;;;;;0.32;88.25;100016.92;1809048;79;21203;-82
2021/12/19 00:59:54;;;;;;;4.00;1.85;;;;;;;0.33;88.35;100015.09;1808607;79;21769;-82
2021/12/19 01:02:59;;;;;;;3.62;2.22;;;;;;;0.32;88.32;100008.00;1809035;79;21192;-83
2021/12/19 01:06:05;;;;;;;3.00;2.15;;;;;;;0.32;88.38;100001.27;1809235;79;21868;-82
2021/12/19 01:09:12;;;;;;;5.62;2.15;;;;;;;0.32;88.42;99986.47;1809206;79;22256;-82
2021/12/19 01:12:16;;;;;;;3.85;2.45;;;;;;;0.32;88.56;99986.47;1809138;79;21314;-82
2021/12/19 01:15:23;;;;;;;3.62;2.12;;;;;;;0.36;88.57;99979.88;1809037;79;21203;-82
2021/12/19 01:18:28;;;;;;;3.55;2.65;;;;;;;0.36;88.55;99978.05;1809111;79;21773;-82
2021/12/19 01:21:33;;;;;;;5.25;2.42;;;;;;;0.38;88.48;99984.19;1809241;79;21255;-83
2021/12/19 01:24:38;;;;;;;6.12;3.22;;;;;;;0.39;88.35;99964.36;1809169;79;21263;-82
2021/12/19 01:27:43;;;;;;;11.85;3.37;;;;;;;0.43;88.17;99971.72;1808347;79;21287;-82
2021/12/19 01:30:49;;;;;;;6.78;3.00;;;;;;;0.41;87.86;99972.30;1809053;79;21725;-81
2021/12/19 01:33:53;;;;;;;4.15;2.87;;;;;;;0.39;87.55;99972.93;1809063;79;21160;-82
2021/12/19 01:37:00;;;;;;;4.37;3.05;;;;;;;0.38;87.25;99968.53;1808875;79;21286;-81
2021/12/19 01:40:08;;;;;;;7.33;3.27;;;;;;;0.36;87.14;99966.43;1809171;79;21176;-81
2021/12/19 01:43:13;;;;;;;2.47;1.87;;;;;;;0.34;86.90;99962.53;1809015;79;21172;-83
2021/12/19 01:46:20;;;;;;;1.40;1.30;;;;;;;0.33;85.93;99961.28;1809117;79;21239;-81
2021/12/19 01:49:26;;;;;;;3.55;1.95;;;;;;;0.32;83.78;99963.11;1808660;79;21173;-82
2021/12/19 01:52:32;;;;;;;2.02;1.60;;;;;;;0.31;82.90;99953.83;1809210;79;21219;-81
2021/12/19 01:55:36;;;;;;;2.92;1.77;;;;;;;0.31;82.24;99945.76;1809129;79;21255;-82
2021/12/19 01:58:42;;;;;;;2.60;1.85;;;;;;;0.28;82.32;99939.26;1809219;79;21801;-82
2021/12/19 02:01:54;;;;;;;1.65;1.55;;;;;;;0.24;81.92;99923.38;1808026;79;21813;-82
2021/12/19 02:05:00;;;;;;;1.82;1.30;;;;;;;0.21;80.52;99918.23;1809103;79;21279;-82
2021/12/19 02:08:06;;;;;;;5.17;1.20;;;;;;;0.19;79.57;99914.81;1809171;79;21691;-82
2021/12/19 02:11:10;;;;;;;1.15;1.05;;;;;;;0.15;78.65;99909.30;1809199;79;21259;-82
2021/12/19 02:14:17;;;;;;;1.40;1.30;;;;;;;0.19;78.84;99904.55;1809275;79;21140;-83
2021/12/19 02:17:24;;;;;;;1.35;1.25;;;;;;;0.20;78.61;99896.34;1809211;79;21286;-82
2021/12/19 02:20:28;;;;;;;1.35;1.25;;;;;;;0.23;78.69;99892.55;1809079;79;21259;-82
2021/12/19 02:23:34;;;;;;;2.25;1.60;;;;;;;0.25;78.85;99885.23;1809194;79;21176;-82
2021/12/19 02:26:39;;;;;;;2.80;1.70;;;;;;;0.28;79.00;99881.42;1809217;79;21483;-82
2021/12/19 02:29:44;;;;;;;1.72;1.55;;;;;;;0.30;79.11;99882.17;1809218;79;21761;-82
2021/12/19 02:32:49;;;;;;;1.92;1.72;;;;;;;0.29;79.45;99880.47;1808230;79;21184;-83
2021/12/19 02:36:05;;;;;;;2.08;1.92;;;;;;;0.29;79.80;99879.98;1807944;79;21290;-83
2021/12/19 02:49:13;;;;;;;3.50;2.50;;;;;;;0.04;82.08;99878.34;1809197;79;21279;-82
2021/12/19 02:52:23;;;;;;;5.10;3.22;;;;;;;0.08;82.74;99874.44;1809071;79;21294;-82
2021/12/19 02:55:29;;;;;;;3.70;2.72;;;;;;;0.09;82.90;99864.53;1809381;79;21682;-81
2021/12/19 02:58:35;;;;;;;3.42;2.58;;;;;;;0.11;83.36;99856.73;1809155;79;21307;-82
2021/12/19 03:01:43;;;;;;;5.67;3.30;;;;;;;0.14;83.44;99857.84;1808854;79;21255;-82
2021/12/19 03:05:01;;;;;;;5.22;3.20;;;;;;;0.15;83.63;99864.92;1809198;79;21250;-81
2021/12/19 03:08:08;;;;;;;4.55;3.33;;;;;;;0.19;83.76;99855.64;1809158;79;21279;-82
2021/12/19 03:20:56;;;;;;;4.47;3.60;;;;;;;0.30;83.25;99831.06;1809146;79;21278;-81
2021/12/19 03:24:03;;;;;;;5.25;3.65;;;;;;;0.25;83.04;99820.17;1809231;79;21262;-81
2021/12/19 03:27:07;;;;;;;4.83;3.30;;;;;;;0.17;82.89;99820.41;1809162;79;21302;-83
2021/12/19 03:30:13;;;;;;;5.65;3.85;;;;;;;0.05;83.21;99818.22;1809201;79;21171;-82
2021/12/19 03:33:20;;;;;;;6.28;4.70;;;;;;;-0.05;83.64;99814.52;1809274;79;21286;-81
2021/12/19 03:36:25;;;;;;;8.60;4.50;;;;;;;-0.15;84.25;99808.16;1809045;79;21283;-83
2021/12/19 03:39:44;;;;;;;7.08;5.17;;;;;;;-0.27;84.92;99796.06;1809208;79;21290;-81
2021/12/19 03:42:40;;;;;;;7.97;5.30;;;;;;;-0.34;85.61;99796.16;1809153;79;21164;-81
2021/12/19 03:45:45;;;;;;;8.85;5.03;;;;;;;-0.37;86.34;99791.53;1809344;79;21282;-82
2021/12/19 03:48:50;;;;;;;10.15;6.25;;;;;;;-0.41;86.81;99781.50;1809228;79;21164;-81
2021/12/19 03:51:55;;;;;;;9.45;5.45;;;;;;;-0.43;87.27;99772.69;1809054;79;21280;-81
2021/12/19 03:55:01;;;;;;;7.28;5.58;;;;;;;-0.45;87.60;99773.80;1809187;79;21146;-81
2021/12/19 03:58:06;;;;;;;8.78;6.35;;;;;;;-0.50;87.92;99762.55;1809135;79;21287;-82
2021/12/19 04:01:11;;;;;;;9.03;6.10;;;;;;;-0.56;88.21;99751.31;1809321;79;21136;-82
2021/12/19 04:04:16;;;;;;;8.68;5.92;;;;;;;-0.61;88.46;99744.11;1817453;79;21283;-81
2021/12/19 04:07:22;;;;;;;8.88;5.70;;;;;;;-0.67;88.76;99752.61;1817433;79;21257;-81
2021/12/19 04:10:28;;;;;;;6.87;5.55;;;;;;;-0.70;89.15;99743.47;1817453;79;21145;-82
2021/12/19 04:13:32;;;;;;;5.30;4.05;;;;;;;-0.69;89.57;99751.04;1817415;79;21271;-83
2021/12/19 04:16:42;;;;;;;5.92;4.45;;;;;;;-0.69;89.97;99751.04;1815744;79;21728;-81
2021/12/19 04:19:45;;;;;;;7.30;4.30;;;;;;;-0.70;90.27;99745.30;1817349;79;21195;-81
2021/12/19 04:22:53;;;;;;;7.67;4.08;;;;;;;-0.65;90.49;99740.43;1817237;79;21195;-81
2021/12/19 04:25:58;;;;;;;5.40;3.72;;;;;;;-0.63;90.62;99737.98;1817531;79;21187;-81
2021/12/19 04:29:03;;;;;;;5.20;3.45;;;;;;;-0.60;90.74;99728.84;1817037;79;21855;-81
2021/12/19 04:32:11;;;;;;;5.20;4.10;;;;;;;-0.61;90.87;99723.95;1815820;79;21322;-81
2021/12/19 04:35:17;;;;;;;5.67;4.10;;;;;;;-0.60;91.06;99723.47;1817323;79;21692;-81
2021/12/19 04:55:24;;;;;;;5.87;3.98;;;;;;;-0.54;91.79;99713.08;1815711;79;21149;-82
2021/12/19 04:58:45;;;;;;;6.20;4.45;;;;;;;-0.52;91.62;99712.49;1816205;79;21179;-81
2021/12/19 05:02:01;;;;;;;5.35;4.10;;;;;;;-0.56;91.51;99706.98;1815754;79;21152;-82
2021/12/19 05:14:48;;;;;;;4.95;4.22;;;;;;;-0.49;91.54;99689.03;1815025;79;21271;-81
2021/12/19 05:17:49;;;;;;;5.20;3.83;;;;;;;-0.47;91.55;99675.86;1814144;79;21199;-81
2021/12/19 05:21:06;;;;;;;4.17;3.62;;;;;;;-0.45;91.20;99664.98;1813772;79;21844;-82
2021/12/19 05:24:32;;;;;;;8.75;4.62;;;;;;;-0.45;91.10;99667.66;1814824;79;21200;-82
2021/12/19 05:27:26;;;;;;;4.25;3.62;;;;;;;-0.40;91.10;99659.59;1813682;79;21852;-82
2021/12/19 05:30:31;;;;;;;4.72;3.62;;;;;;;-0.37;90.95;99657.17;1814245;79;21729;-83
2021/12/19 05:33:37;;;;;;;4.97;3.67;;;;;;;-0.34;90.89;99656.41;1813535;79;21338;-83
2021/12/19 05:46:55;;;;;;;11.08;8.40;;;;;;;-0.18;90.59;99642.61;1814732;79;21748;-81
2021/12/19 05:50:00;;;;;;;10.53;8.65;;;;;;;-0.15;90.20;99630.74;1813463;79;21773;-82
2021/12/19 05:53:05;;;;;;;9.73;7.47;;;;;;;-0.12;89.70;99618.41;1814184;79;21260;-82
2021/12/19 05:56:11;;;;;;;12.20;8.40;;;;;;;-0.08;88.86;99609.97;1815000;79;21258;-82
2021/12/19 05:59:16;;;;;;;6.85;4.85;;;;;;;-0.04;87.74;99615.95;1815130;79;21809;-82
2021/12/19 06:02:20;;;;;;;5.17;4.12;;;;;;;-0.02;86.95;99602.73;1814979;79;21313;-81
2021/12/19 06:05:26;;;;;;;4.37;3.98;;;;;;;0.00;86.80;99595.91;1813277;79;21199;-83
2021/12/19 06:08:30;;;;;;;6.33;4.70;;;;;;;0.02;86.82;99598.45;1814865;79;21314;-82
2021/12/19 06:11:35;;;;;;;4.20;3.52;;;;;;;0.02;86.96;99593.08;1815068;79;21876;-83
2021/12/19 06:14:41;;;;;;;4.90;4.40;;;;;;;-0.01;87.21;99582.07;1815055;79;21148;-82
2021/12/19 06:17:48;;;;;;;6.28;4.08;;;;;;;-0.07;86.69;99577.21;1814937;79;21816;-82
2021/12/19 06:20:53;;;;;;;5.95;4.90;;;;;;;-0.08;86.92;99574.16;1815029;79;21863;-82
2021/12/19 06:23:58;;;;;;;6.50;5.60;;;;;;;-0.09;86.93;99567.94;1814866;79;21326;-83
2021/12/19 06:27:04;;;;;;;7.62;5.67;;;;;;;-0.11;86.88;99562.31;1814945;79;21278;-82
2021/12/19 06:30:10;;;;;;;8.83;5.78;;;;;;;-0.14;86.95;99557.17;1815094;79;21251;-83
2021/12/19 06:33:15;;;;;;;6.40;5.65;;;;;;;-0.16;87.21;99545.70;1815165;79;21313;-83
2021/12/19 06:36:21;;;;;;;8.88;4.87;;;;;;;-0.21;87.50;99527.77;1815273;79;21270;-82
2021/12/19 06:39:28;;;;;;;5.92;5.03;;;;;;;-0.27;87.59;99531.81;1815077;79;21231;-83
2021/12/19 06:42:33;;;;;;;6.03;5.25;;;;;;;-0.32;87.49;99518.77;1814574;79;21191;-83
2021/12/19 06:45:38;;;;;;;9.43;7.37;;;;;;;-0.33;87.54;99518.41;1815332;79;21130;-83
2021/12/19 06:48:43;;;;;;;10.00;7.97;;;;;;;-0.34;87.83;99515.82;1815147;79;21262;-82
2021/12/19 06:51:48;;;;;;;14.28;8.53;;;;;;;-0.33;87.90;99522.44;1815019;79;21266;-82
2021/12/19 06:54:54;;;;;;;10.40;8.73;;;;;;;-0.34;87.91;99510.45;1814993;79;21391;-83
2021/12/19 06:57:59;;;;;;;11.95;9.63;;;;;;;-0.34;88.18;99501.89;1815088;79;21286;-83
2021/12/19 07:01:04;;;;;;;12.28;9.50;;;;;;;-0.34;88.66;99501.04;1815075;79;21674;-82
2021/12/19 07:04:10;;;;;;;12.60;9.40;;;;;;;-0.32;88.88;99489.20;1815212;79;21129;-82
2021/12/19 07:07:16;;;;;;;12.85;9.75;;;;;;;-0.29;88.97;99486.73;1808210;79;21144;-82
2021/12/19 07:10:21;;;;;;;14.43;10.32;;;;;;;-0.24;88.89;99486.34;1809273;79;21279;-83
2021/12/19 07:13:25;;;;;;;11.85;9.05;;;;;;;-0.17;89.07;99486.22;1809165;79;21810;-82
2021/12/19 07:16:30;;;;;;;10.25;9.10;;;;;;;-0.14;88.71;99472.50;1809183;79;21113;-83
2021/12/19 07:19:35;;;;;;;9.83;8.15;;;;;;;-0.09;88.70;99463.58;1809234;79;21267;-83
2021/12/19 07:22:41;;;;;;;9.03;7.60;;;;;;;-0.04;88.10;99453.30;1808394;79;21207;-83
2021/12/19 07:25:46;;;;;;;9.20;7.70;;;;;;;-0.02;88.10;99444.09;1809040;79;21275;-82
2021/12/19 07:28:53;;;;;;;10.58;7.58;;;;;;;0.01;88.20;99451.06;1809078;79;21261;-83
2021/12/19 07:31:59;;;;;;;9.18;6.78;;;;;;;-0.02;87.92;99437.37;1807394;79;21159;-82
2021/12/19 07:35:08;;;;;;;8.83;6.80;;;;;;;-0.03;87.68;99434.83;1809038;79;21152;-82
2021/12/19 07:38:23;;;;;;;8.08;6.83;;;;;;;-0.06;87.80;99438.61;1807756;79;21342;-84
2021/12/19 07:41:20;;;;;;;7.45;6.30;;;;;;;-0.02;87.97;99435.18;1808921;79;21255;-80
2021/12/19 07:44:25;;;;;;;13.95;7.05;;;;;;;-0.03;87.74;99431.64;1809140;79;21841;-80
2021/12/19 07:47:29;;;;;;;8.05;6.08;;;;;;;0.00;88.11;99418.45;1809175;79;21868;-80
2021/12/19 07:50:34;;;;;;;7.45;6.12;;;;;;;0.04;87.77;99407.77;1809173;79;21256;-81
2021/12/19 07:53:40;;;;;;;7.25;6.08;;;;;;;0.09;87.90;99397.46;1809080;79;21314;-80
2021/12/19 07:56:46;;;;;;;8.75;5.85;;;;;;;0.15;87.70;99394.77;1809247;79;21279;-81
2021/12/19 07:59:53;;;;;;;6.40;4.47;;;;;;;0.21;87.72;99390.19;1809168;79;21263;-80
2021/12/19 08:03:04;;;;;;;7.22;5.15;;;;;;;0.22;87.37;99382.47;1809063;79;21836;-80
2021/12/19 08:06:12;;;;;;;5.50;4.53;;;;;;;0.25;87.37;99369.62;1809336;79;21247;-81
2021/12/19 08:09:36;;;;;;;6.67;4.60;;;;;;;0.32;87.31;99381.17;1809186;79;21255;-80
2021/12/19 08:12:31;;;;;;;6.22;4.55;;;;;;;0.35;87.10;99376.89;1809238;79;21283;-81
2021/12/19 08:15:36;;;;;;;4.58;3.65;;;;;;;0.41;87.17;99383.06;1809320;79;21725;-81
2021/12/19 08:18:41;;;;;;;8.08;4.03;;;;;;;0.49;87.07;99378.72;1809036;79;21314;-82
2021/12/19 08:21:47;;;;;;;4.12;3.47;;;;;;;0.56;86.65;99372.29;1785472;79;21306;-81
2021/12/19 08:24:52;;;;;;;6.42;3.92;;;;;;;0.63;86.09;99355.13;1809262;79;21133;-81
2021/12/19 08:27:57;;;;;;;4.95;3.70;;;;;;;0.66;85.95;99353.48;1809132;79;21302;-81
2021/12/19 08:31:03;;;;;;;4.15;3.55;;;;;;;0.68;86.00;99344.30;1809343;79;21247;-81
2021/12/19 08:34:08;;;;;;;6.60;3.60;;;;;;;0.71;85.58;99333.77;1809140;79;21315;-82
2021/12/19 08:37:15;;;;;;;4.67;3.50;;;;;;;0.71;85.66;99323.84;1809161;79;21295;-80
2021/12/19 08:40:23;;;;;;;5.03;3.25;;;;;;;0.73;85.88;99317.82;1809112;79;21259;-81
2021/12/19 08:43:29;;;;;;;4.78;3.25;;;;;;;0.74;85.87;99304.71;1809101;79;21291;-81
2021/12/19 08:46:35;;;;;;;5.10;3.35;;;;;;;0.73;85.82;99300.82;1809050;79;21259;-81
2021/12/19 08:49:43;;;;;;;5.12;3.50;;;;;;;0.71;86.04;99296.09;1809165;79;21109;-81
2021/12/19 08:52:49;;;;;;;6.30;3.55;;;;;;;0.71;86.21;99282.63;1809221;79;21276;-81
2021/12/19 08:55:55;;;;;;;6.53;3.47;;;;;;;0.73;86.33;99265.83;1809065;79;21172;-81
2021/12/19 08:59:00;;;;;;;5.53;4.10;;;;;;;0.75;86.17;99258.45;1809185;79;21694;-81
2021/12/19 09:02:06;;;;;;;6.53;3.10;;;;;;;0.79;86.04;99249.11;1809153;79;21759;-80
2021/12/19 09:05:12;;;;;;;5.03;3.37;;;;;;;0.80;85.81;99250.84;1809021;79;21152;-81
2021/12/19 09:08:17;;;;;;;4.37;3.35;;;;;;;0.84;86.22;99255.42;1811274;79;21263;-81
2021/12/19 09:11:24;;;;;;;3.83;3.22;;;;;;;0.86;86.28;99246.73;1814981;79;21279;-82
2021/12/19 09:14:28;;;;;;;6.40;3.72;;;;;;;0.90;86.28;99242.27;1815058;79;21160;-82
2021/12/19 09:17:32;;;;;;;4.87;3.45;;;;;;;0.90;85.59;99236.88;1815153;79;21294;-82
2021/12/19 09:20:38;;;;;;;4.62;3.42;;;;;;;0.88;85.67;99224.04;1815179;79;21251;-81
2021/12/19 09:23:42;;;;;;;5.97;3.83;;;;;;;0.90;85.96;99213.16;1815210;79;21263;-81
2021/12/19 09:26:48;;;;;;;4.55;3.58;;;;;;;0.91;86.46;99200.88;1815110;79;21773;-82
2021/12/19 09:29:53;;;;;;;5.42;3.27;;;;;;;0.98;86.42;99194.42;1815147;79;21136;-82
2021/12/19 09:32:58;;;;;;;4.00;3.25;;;;;;;1.10;86.60;99174.44;1813360;79;21187;-81
2021/12/19 09:36:04;;;;;;;4.15;3.30;;;;;;;1.17;85.95;99172.00;1815169;79;21144;-82
2021/12/19 09:39:10;;;;;;;4.72;3.17;;;;;;;1.16;85.67;99160.39;1814974;79;21267;-81
2021/12/19 09:42:18;;;;;;;4.05;2.67;;;;;;;1.15;85.83;99156.00;1815135;79;21809;-81
2021/12/19 09:45:21;;;;;;;5.58;3.25;;;;;;;1.20;85.82;99151.52;1792842;79;21259;-81
2021/12/19 09:48:26;;;;;;;4.72;3.12;;;;;;;1.23;85.67;99139.13;1814979;79;21179;-82
2021/12/19 09:51:32;;;;;;;4.03;2.80;;;;;;;1.28;85.80;99128.76;1815128;79;21262;-81
2021/12/19 09:54:36;;;;;;;4.58;3.00;;;;;;;1.36;85.87;99118.58;1815045;79;21282;-81
2021/12/19 09:57:41;;;;;;;4.17;3.15;;;;;;;1.43;85.58;99112.97;1815099;79;21773;-81
2021/12/19 10:00:46;;;;;;;5.08;3.20;;;;;;;1.46;85.33;99104.09;1815089;79;21263;-81
2021/12/19 10:03:52;;;;;;;3.55;3.00;;;;;;;1.47;84.80;99096.36;1815027;79;21290;-81
2021/12/19 10:07:15;;;;;;;4.72;3.37;;;;;;;1.53;85.11;99096.26;1815054;79;21274;-81
2021/12/19 10:10:27;;;;;;;5.05;3.33;;;;;;;1.61;84.89;99091.48;1813713;79;21152;-82
2021/12/19 10:13:44;;;;;;;4.67;3.35;;;;;;;1.68;84.70;99075.89;1814626;79;21179;-82
2021/12/19 10:16:50;;;;;;;5.95;3.08;;;;;;;1.75;85.01;99089.14;1815180;79;21282;-81
2021/12/19 10:20:05;;;;;;;5.50;3.52;;;;;;;1.78;84.92;99091.52;1755036;79;21128;-80
2021/12/19 10:23:26;;;;;;;5.90;3.90;;;;;;;1.78;84.83;99081.23;1815162;79;21319;-81
2021/12/19 10:26:30;;;;;;;3.98;3.50;;;;;;;1.78;85.09;99072.64;1797255;79;21828;-82
2021/12/19 10:29:51;;;;;;;8.00;3.75;;;;;;;1.76;84.87;99051.73;1815342;79;21183;-82
2021/12/19 10:33:11;;;;;;;10.13;3.62;;;;;;;1.76;85.04;99036.06;1815218;79;21755;-82
2021/12/19 10:36:17;;;;;;;5.15;3.25;;;;;;;1.73;84.87;99029.61;1815339;79;21259;-81
2021/12/19 10:39:26;;;;;;;5.70;3.85;;;;;;;1.66;84.94;99032.08;1815183;79;21345;-80
2021/12/19 10:42:35;;;;;;;9.75;4.20;;;;;;;1.58;85.03;99015.80;1814496;79;21250;-82
2021/12/19 10:45:52;;;;;;;6.55;4.20;;;;;;;1.54;85.72;99003.63;1813956;79;21256;-81
2021/12/19 10:48:57;;;;;;;5.53;4.35;;;;;;;1.52;86.00;98986.77;1815238;79;21200;-81
2021/12/19 10:52:05;;;;;;;8.38;4.15;;;;;;;1.48;86.07;98978.13;1815207;79;21293;-80
2021/12/19 10:55:17;;;;;;;5.00;4.03;;;;;;;1.44;86.39;98967.30;1793289;79;21809;-81
2021/12/19 10:58:50;;;;;;;6.53;3.92;;;;;;;1.40;86.79;98961.86;1815162;79;21160;-80
2021/12/19 11:01:56;;;;;;;8.25;4.37;;;;;;;1.38;87.26;98946.86;1815201;79;21282;-82
2021/12/19 11:05:02;;;;;;;6.85;5.00;;;;;;;1.37;87.56;98931.70;1815203;79;21255;-81
2021/12/19 11:08:12;;;;;;;10.72;5.28;;;;;;;1.34;87.66;98926.09;1815147;79;21156;-81
2021/12/19 11:11:18;;;;;;;9.33;5.37;;;;;;;1.32;87.94;98908.38;1813807;79;21270;-82
2021/12/19 11:14:38;;;;;;;7.42;5.30;;;;;;;1.32;88.46;98904.34;1815096;79;21271;-82
2021/12/19 11:17:43;;;;;;;8.30;4.80;;;;;;;1.36;88.90;98900.34;1815256;79;21282;-80
2021/12/19 11:20:49;;;;;;;10.28;5.62;;;;;;;1.38;89.04;98892.97;1815097;79;21752;-82
2021/12/19 11:23:54;;;;;;;9.20;6.08;;;;;;;1.40;89.25;98903.09;1815307;79;21152;-81
2021/12/19 11:27:02;;;;;;;9.78;6.90;;;;;;;1.42;89.35;98897.91;1815223;79;21856;-81
2021/12/19 11:30:08;;;;;;;10.30;6.53;;;;;;;1.47;89.53;98886.16;1815034;79;21254;-82
2021/12/19 11:33:25;;;;;;;9.33;6.55;;;;;;;1.51;89.38;98885.37;1815149;79;21171;-80
2021/12/19 11:36:32;;;;;;;8.58;6.62;;;;;;;1.51;89.15;98858.42;1815219;79;21279;-81
2021/12/19 11:39:41;;;;;;;12.13;6.50;;;;;;;1.50;89.11;98845.42;1815093;79;21255;-80
2021/12/19 11:42:47;;;;;;;11.38;6.35;;;;;;;1.47;89.25;98838.16;1815156;79;21279;-81
2021/12/19 11:45:58;;;;;;;8.48;6.45;;;;;;;1.44;89.56;98836.61;1815213;79;21263;-80
2021/12/19 11:49:23;;;;;;;9.98;6.78;;;;;;;1.42;89.97;98835.09;1793074;79;21247;-81
2021/12/19 11:52:34;;;;;;;13.65;7.05;;;;;;;1.39;90.12;98844.31;1815149;79;21212;-81
2021/12/19 11:55:47;;;;;;;11.30;6.83;;;;;;;1.39;90.40;98830.00;1815269;79;21295;-80
2021/12/19 11:58:58;;;;;;;10.45;7.42;;;;;;;1.38;90.83;98837.23;1815051;79;21290;-81
2021/12/19 12:02:19;;;;;;;8.68;7.33;;;;;;;1.40;91.18;98843.81;1815099;79;21721;-81
2021/12/19 12:05:27;;;;;;;14.53;8.15;;;;;;;1.39;91.54;98841.63;1796755;79;21132;-81
2021/12/19 12:08:33;;;;;;;10.85;8.23;;;;;;;1.38;91.58;98840.44;1815046;79;21309;-81
2021/12/19 12:11:40;;;;;;;11.88;8.50;;;;;;;1.33;92.01;98842.24;1811045;79;21279;-82
2021/12/19 12:14:50;;;;;;;11.05;8.08;;;;;;;1.31;92.30;98831.26;1809025;79;21825;-81
2021/12/19 12:17:58;;;;;;;13.55;8.75;;;;;;;1.31;92.61;98839.34;1809143;79;21318;-81
2021/12/19 12:21:03;;;;;;;12.58;8.75;;;;;;;1.34;92.73;98833.66;1809195;79;21741;-81
2021/12/19 12:24:12;;;;;;;13.20;9.38;;;;;;;1.37;92.94;98826.63;1809114;79;21254;-81
2021/12/19 12:27:19;;;;;;;14.13;8.35;;;;;;;1.35;93.12;98821.37;1807595;79;21179;-82
2021/12/19 12:30:41;;;;;;;12.18;8.85;;;;;;;1.35;93.36;98811.09;1749299;79;21274;-82
2021/12/19 12:33:48;;;;;;;14.70;9.75;;;;;;;1.39;93.63;98797.67;1807610;79;21128;-82
2021/12/19 12:36:53;;;;;;;12.93;9.23;;;;;;;1.39;93.84;98793.12;1808933;79;21279;-82
2021/12/19 12:40:28;;;;;;;13.68;10.23;;;;;;;1.38;94.04;98781.16;1809160;79;21133;-81
2021/12/19 12:43:36;;;;;;;12.25;9.45;;;;;;;1.38;94.33;98769.04;1809158;79;21287;-82
2021/12/19 12:46:44;;;;;;;13.78;10.32;;;;;;;1.37;94.54;98778.12;1809100;79;21208;-83
2021/12/19 12:49:50;;;;;;;17.53;9.63;;;;;;;1.40;94.84;98784.53;1809545;79;21136;-82
2021/12/19 12:52:58;;;;;;;17.75;10.38;;;;;;;1.45;95.01;98776.83;1809189;79;21383;-82
2021/12/19 12:56:19;;;;;;;15.35;9.73;;;;;;;1.45;95.22;98776.83;1809089;79;21276;-81
2021/12/19 12:59:24;;;;;;;;;;;;;;;1.42;95.47;98770.42;1811818;79;21144;-81
2021/12/19 13:02:40;;;;;;;15.43;9.70;;;;;;;1.45;95.73;98772.79;1809125;79;20286;-82
2021/12/19 13:05:36;;;;;;;13.20;9.70;;;;;;;1.46;95.93;98758.34;1809123;79;21136;-82
2021/12/19 13:08:42;;;;;;;12.78;9.23;;;;;;;1.50;96.03;98762.38;1809135;79;21840;-82
2021/12/19 13:11:49;;;;;;;11.85;8.90;;;;;;;1.54;95.99;98754.34;1809216;79;21315;-82
2021/12/19 13:15:02;;;;;;;14.55;9.98;;;;;;;1.57;95.98;98756.73;1809195;79;21279;-82
2021/12/19 13:18:08;;;;;;;17.52;10.63;;;;;;;1.56;96.02;98738.03;1807987;79;21277;-82
2021/12/19 13:21:13;;;;;;;20.62;10.15;;;;;;;1.60;96.11;98738.91;1809257;79;21247;-82
2021/12/19 13:24:18;;;;;;;17.75;10.03;;;;;;;1.62;96.08;98736.89;1809312;79;21824;-82
2021/12/19 13:27:31;;;;;;;16.23;9.73;;;;;;;1.64;96.09;98725.44;1808538;79;21323;-82
2021/12/19 13:30:42;;;;;;;16.95;10.08;;;;;;;1.62;96.02;98718.02;1808893;79;21309;-81
2021/12/19 13:33:48;;;;;;;14.83;10.20;;;;;;;1.63;96.04;98711.62;1809139;79;21247;-82
2021/12/19 13:37:10;;;;;;;11.93;9.20;;;;;;;1.64;96.06;98716.00;1808913;79;21255;-82
2021/12/19 13:40:21;;;;;;;15.45;9.70;;;;;;;1.66;95.99;98700.53;1809097;79;21793;-82
2021/12/19 13:43:32;;;;;;;22.65;9.68;;;;;;;1.68;95.96;98689.08;1809065;79;21293;-81
2021/12/19 13:46:38;;;;;;;14.30;9.03;;;;;;;1.70;95.93;98683.55;1809105;79;21892;-82
2021/12/19 13:49:44;;;;;;;12.98;9.60;;;;;;;1.71;96.06;98681.19;1809141;79;21247;-81
2021/12/19 13:52:49;;;;;;;13.95;9.03;;;;;;;1.71;96.21;98656.92;1809152;79;21271;-81
2021/12/19 13:56:00;;;;;;;13.70;9.48;;;;;;;1.73;96.42;98658.44;1809187;79;21239;-82
2021/12/19 13:59:08;;;;;;;15.70;10.00;;;;;;;1.74;96.54;98651.19;1809240;79;21264;-81
2021/12/19 14:02:17;;;;;;;15.78;9.28;;;;;;;1.73;96.97;98634.69;1809315;79;21263;-81
2021/12/19 14:05:54;;;;;;;16.07;10.00;;;;;;;1.72;97.40;98640.58;1809402;79;21832;-82
2021/12/19 14:09:10;;;;;;;23.25;11.22;;;;;;;1.73;98.00;98649.52;1809259;79;21136;-81
2021/12/19 14:12:53;;;;;;;16.05;10.13;;;;;;;1.71;98.74;98648.33;1807617;79;21710;-81
2021/12/19 14:15:28;;;;;;;15.75;10.38;;;;;;;1.69;99.27;98648.14;1817393;79;21686;-82
2021/12/19 14:18:40;;;;;;;13.85;9.60;;;;;;;1.67;99.85;98645.61;1817533;79;21701;-83
2021/12/19 14:21:47;;;;;;;14.47;10.50;;;;;;;1.67;100.00;98643.42;1817554;79;21342;-82
2021/12/19 14:24:59;;;;;;;16.87;10.28;;;;;;;1.64;100.00;98647.27;1817433;79;21140;-82
2021/12/19 14:28:04;;;;;;;14.68;9.68;;;;;;;1.60;100.00;98649.97;1817542;79;21326;-83
2021/12/19 14:31:11;;;;;;;17.60;10.80;;;;;;;1.54;100.00;98641.99;1817347;79;21235;-81
2021/12/19 14:34:26;;;;;;;15.65;10.08;;;;;;;1.53;100.00;98651.59;1817472;79;21140;-82
2021/12/19 14:37:38;;;;;;;17.77;10.32;;;;;;;1.55;100.00;98654.96;1817390;79;21323;-82
2021/12/19 14:40:48;;;;;;;18.65;9.95;;;;;;;1.55;100.00;98656.31;1817483;79;21718;-82
2021/12/19 14:43:54;;;;;;;18.90;10.98;;;;;;;1.54;100.00;98643.34;1817560;79;21145;-82
2021/12/19 14:47:00;;;;;;;13.13;9.75;;;;;;;1.54;100.00;98631.72;1817554;79;21928;-81
2021/12/19 14:50:06;;;;;;;15.38;10.13;;;;;;;1.53;100.00;98630.04;1817519;79;21132;-82
2021/12/19 14:53:22;;;;;;;15.05;9.78;;;;;;;1.52;100.00;98616.23;1776059;79;21718;-82
2021/12/19 14:56:29;;;;;;;17.62;10.28;;;;;;;1.53;100.00;98607.13;1817429;79;21247;-81
2021/12/19 14:59:33;;;;;;;15.90;9.88;;;;;;;1.52;100.00;98618.92;1794842;79;21291;-82
2021/12/19 15:02:38;;;;;;;15.50;9.88;;;;;;;1.50;100.00;98615.52;1817268;79;21307;-82
2021/12/19 15:05:43;;;;;;;16.95;10.23;;;;;;;1.50;100.00;98613.67;1817578;79;21259;-83
2021/12/19 15:08:49;;;;;;;14.47;9.93;;;;;;;1.51;100.00;98605.11;1817438;79;21832;-82
2021/12/19 15:11:55;;;;;;;15.40;10.20;;;;;;;1.53;100.00;98597.70;1817476;79;21706;-81
2021/12/19 15:15:00;;;;;;;16.62;9.13;;;;;;;1.57;100.00;98598.23;1811329;79;21279;-81
2021/12/19 15:18:05;;;;;;;14.13;9.80;;;;;;;1.60;100.00;98587.11;1809089;79;21296;-83
2021/12/19 15:21:11;;;;;;;13.05;9.03;;;;;;;1.58;100.00;98583.23;1809323;79;21144;-82
2021/12/19 15:24:16;;;;;;;16.23;10.15;;;;;;;1.59;100.00;98580.88;1809248;79;21255;-82
2021/12/19 15:27:21;;;;;;;14.85;9.20;;;;;;;1.59;100.00;98566.05;1809209;79;21283;-82
2021/12/19 15:30:26;;;;;;;13.75;9.53;;;;;;;1.57;100.00;98577.52;1809352;79;21781;-82
2021/12/19 15:33:32;;;;;;;16.57;10.35;;;;;;;1.52;100.00;98569.07;1809113;79;21144;-82
2021/12/19 15:36:39;;;;;;;14.60;9.43;;;;;;;1.50;100.00;98565.67;1809231;79;21255;-82
2021/12/19 15:39:45;;;;;;;17.75;9.35;;;;;;;1.48;100.00;98563.66;1809268;79;21313;-81
2021/12/19 15:42:50;;;;;;;15.40;9.00;;;;;;;1.46;100.00;98556.25;1809147;79;21184;-82
2021/12/19 15:45:57;;;;;;;15.08;8.33;;;;;;;1.43;100.00;98551.17;1809294;79;21306;-82